SWA4230 KTUS-KABQ
Flight info
| Callsign | SWA4230 |
|---|---|
| Flight time | 0h 46m |
| Altitude | 39000 |
| Route | WLDKT4 SSO J104 TMACK/N0457F400 KALSE BRRTO1 |
| Aircraft | B738/M-SDE2E3FGHIRWXY/LB1 |
Departure
| Time | 2026-04-24 01:43 |
|---|---|
| Airport | Tucson International Airport (KTUS) |
Arrival
| Time | 2026-04-24 02:29 |
|---|---|
| Airport | Albuquerque International Sunport (KABQ) |
| Time | Latitude | Longitude | Altitude | Speed | Heading |
|---|---|---|---|---|---|
| 2026-04-24 00:15 | 32.11842 | -110.93671 | 2585 ft | 0 kts | 346° |
| 2026-04-24 01:23 | 32.11835 | -110.93669 | 2586 ft | 2 kts | 346° |
| 2026-04-24 01:23 | 32.11819 | -110.93664 | 2588 ft | 2 kts | 346° |
| 2026-04-24 01:23 | 32.11804 | -110.93660 | 2593 ft | 2 kts | 346° |
| 2026-04-24 01:23 | 32.11799 | -110.93658 | 2595 ft | 0 kts | 346° |
| 2026-04-24 01:31 | 32.11800 | -110.93661 | 2595 ft | 1 kts | 324° |
| 2026-04-24 01:31 | 32.11801 | -110.93677 | 2593 ft | 4 kts | 263° |
| 2026-04-24 01:31 | 32.11794 | -110.93707 | 2589 ft | 4 kts | 249° |
| 2026-04-24 01:31 | 32.11782 | -110.93736 | 2585 ft | 4 kts | 238° |
| 2026-04-24 01:32 | 32.11768 | -110.93766 | 2585 ft | 5 kts | 245° |
| 2026-04-24 01:32 | 32.11752 | -110.93801 | 2584 ft | 5 kts | 232° |
| 2026-04-24 01:32 | 32.11721 | -110.93812 | 2592 ft | 5 kts | 168° |
| 2026-04-24 01:32 | 32.11693 | -110.93791 | 2594 ft | 5 kts | 139° |
| 2026-04-24 01:33 | 32.11670 | -110.93763 | 2599 ft | 6 kts | 133° |
| 2026-04-24 01:33 | 32.11627 | -110.93707 | 2601 ft | 13 kts | 131° |
| 2026-04-24 01:33 | 32.11550 | -110.93616 | 2604 ft | 17 kts | 138° |
| 2026-04-24 01:33 | 32.11466 | -110.93520 | 2610 ft | 16 kts | 135° |
| 2026-04-24 01:34 | 32.11385 | -110.93428 | 2614 ft | 16 kts | 134° |
| 2026-04-24 01:34 | 32.11307 | -110.93338 | 2616 ft | 15 kts | 134° |
| 2026-04-24 01:34 | 32.11235 | -110.93250 | 2619 ft | 15 kts | 133° |
| 2026-04-24 01:34 | 32.11165 | -110.93167 | 2619 ft | 14 kts | 137° |
| 2026-04-24 01:35 | 32.11097 | -110.93089 | 2620 ft | 13 kts | 135° |
| 2026-04-24 01:35 | 32.11032 | -110.93013 | 2623 ft | 13 kts | 136° |
| 2026-04-24 01:35 | 32.10969 | -110.92939 | 2625 ft | 13 kts | 135° |
| 2026-04-24 01:35 | 32.10909 | -110.92868 | 2627 ft | 12 kts | 135° |
| 2026-04-24 01:36 | 32.10849 | -110.92798 | 2631 ft | 12 kts | 135° |
| 2026-04-24 01:36 | 32.10791 | -110.92729 | 2635 ft | 12 kts | 135° |
| 2026-04-24 01:36 | 32.10734 | -110.92664 | 2637 ft | 11 kts | 135° |
| 2026-04-24 01:36 | 32.10679 | -110.92599 | 2639 ft | 11 kts | 136° |
| 2026-04-24 01:37 | 32.10626 | -110.92536 | 2643 ft | 11 kts | 134° |
| 2026-04-24 01:37 | 32.10576 | -110.92474 | 2645 ft | 10 kts | 136° |
| 2026-04-24 01:37 | 32.10524 | -110.92417 | 2646 ft | 10 kts | 136° |
| 2026-04-24 01:37 | 32.10475 | -110.92360 | 2646 ft | 10 kts | 137° |
| 2026-04-24 01:38 | 32.10427 | -110.92304 | 2648 ft | 10 kts | 134° |
| 2026-04-24 01:38 | 32.10380 | -110.92250 | 2649 ft | 9 kts | 142° |
| 2026-04-24 01:38 | 32.10334 | -110.92237 | 2650 ft | 7 kts | 193° |
| 2026-04-24 01:38 | 32.10311 | -110.92255 | 2650 ft | 0 kts | 220° |
| 2026-04-24 01:39 | 32.10310 | -110.92256 | 2657 ft | 3 kts | 220° |
| 2026-04-24 01:40 | 32.10285 | -110.92283 | 2651 ft | 5 kts | 226° |
| 2026-04-24 01:40 | 32.10265 | -110.92318 | 2654 ft | 5 kts | 249° |
| 2026-04-24 01:40 | 32.10269 | -110.92358 | 2651 ft | 5 kts | 294° |
| 2026-04-24 01:40 | 32.10282 | -110.92378 | 2654 ft | 0 kts | 312° |
| 2026-04-24 01:42 | 32.10331 | -110.92435 | 2649 ft | 34 kts | 315° |
| 2026-04-24 01:42 | 32.10712 | -110.92886 | 2634 ft | 119 kts | 315° |
| 2026-04-24 01:42 | 32.11465 | -110.93739 | 2944 ft | 166 kts | 316° |
| 2026-04-24 01:43 | 32.12364 | -110.94685 | 3960 ft | 180 kts | 317° |
| 2026-04-24 01:43 | 32.13372 | -110.95780 | 4412 ft | 211 kts | 312° |
| 2026-04-24 01:43 | 32.14439 | -110.97097 | 4720 ft | 234 kts | 310° |
| 2026-04-24 01:43 | 32.15554 | -110.98525 | 5230 ft | 250 kts | 312° |
| 2026-04-24 01:44 | 32.16824 | -111.00053 | 5792 ft | 267 kts | 312° |
| 2026-04-24 01:44 | 32.18137 | -111.01609 | 6772 ft | 266 kts | 313° |
| 2026-04-24 01:44 | 32.19466 | -111.03123 | 7811 ft | 268 kts | 313° |
| 2026-04-24 01:44 | 32.20935 | -111.04511 | 8543 ft | 282 kts | 331° |
| 2026-04-24 01:45 | 32.22883 | -111.04949 | 9582 ft | 291 kts | 360° |
| 2026-04-24 01:45 | 32.24837 | -111.04250 | 10332 ft | 309 kts | 26° |
| 2026-04-24 01:45 | 32.26612 | -111.02614 | 10658 ft | 339 kts | 40° |
| 2026-04-24 01:45 | 32.28410 | -111.00649 | 11099 ft | 357 kts | 40° |
| 2026-04-24 01:46 | 32.29927 | -110.98308 | 11821 ft | 370 kts | 63° |
| 2026-04-24 01:46 | 32.30619 | -110.95347 | 12666 ft | 376 kts | 83° |
| 2026-04-24 01:46 | 32.30862 | -110.92271 | 13402 ft | 384 kts | 85° |
| 2026-04-24 01:46 | 32.31062 | -110.89077 | 14085 ft | 391 kts | 86° |
| 2026-04-24 01:47 | 32.31251 | -110.85845 | 14876 ft | 394 kts | 85° |
| 2026-04-24 01:47 | 32.31449 | -110.82593 | 15686 ft | 397 kts | 85° |
| 2026-04-24 01:47 | 32.31659 | -110.79344 | 16462 ft | 401 kts | 84° |
| 2026-04-24 01:47 | 32.31884 | -110.76027 | 17156 ft | 407 kts | 84° |
| 2026-04-24 01:48 | 32.32112 | -110.72699 | 17803 ft | 413 kts | 83° |
| 2026-04-24 01:48 | 32.32349 | -110.69299 | 18555 ft | 416 kts | 83° |
| 2026-04-24 01:48 | 32.32584 | -110.65883 | 19289 ft | 417 kts | 83° |
| 2026-04-24 01:48 | 32.32821 | -110.62427 | 19873 ft | 422 kts | 84° |
| 2026-04-24 01:49 | 32.33060 | -110.58930 | 20462 ft | 428 kts | 84° |
| 2026-04-24 01:49 | 32.33162 | -110.55423 | 21047 ft | 433 kts | 90° |
| 2026-04-24 01:49 | 32.33052 | -110.51832 | 21661 ft | 437 kts | 93° |
| 2026-04-24 01:49 | 32.32856 | -110.48215 | 22240 ft | 441 kts | 94° |
| 2026-04-24 01:50 | 32.32641 | -110.44621 | 22814 ft | 445 kts | 94° |
| 2026-04-24 01:50 | 32.32428 | -110.40934 | 23417 ft | 449 kts | 94° |
| 2026-04-24 01:50 | 32.32232 | -110.37215 | 23879 ft | 453 kts | 94° |
| 2026-04-24 01:50 | 32.32051 | -110.33523 | 24353 ft | 457 kts | 94° |
| 2026-04-24 01:51 | 32.31878 | -110.29763 | 24833 ft | 460 kts | 94° |
| 2026-04-24 01:51 | 32.31708 | -110.25942 | 25294 ft | 464 kts | 94° |
| 2026-04-24 01:51 | 32.31540 | -110.22154 | 25735 ft | 468 kts | 94° |
| 2026-04-24 01:51 | 32.31577 | -110.18281 | 26085 ft | 474 kts | 79° |
| 2026-04-24 01:52 | 32.32646 | -110.14592 | 26423 ft | 475 kts | 57° |
| 2026-04-24 01:52 | 32.34581 | -110.11515 | 26863 ft | 469 kts | 41° |
| 2026-04-24 01:52 | 32.36993 | -110.08916 | 27332 ft | 469 kts | 36° |
| 2026-04-24 01:52 | 32.39481 | -110.06362 | 27741 ft | 472 kts | 36° |
| 2026-04-24 01:53 | 32.41946 | -110.03842 | 28182 ft | 474 kts | 36° |
| 2026-04-24 01:53 | 32.44457 | -110.01257 | 28534 ft | 478 kts | 36° |
| 2026-04-24 01:53 | 32.46973 | -109.98641 | 28892 ft | 482 kts | 36° |
| 2026-04-24 01:53 | 32.49480 | -109.96008 | 29280 ft | 485 kts | 36° |
| 2026-04-24 01:54 | 32.52010 | -109.93333 | 29664 ft | 488 kts | 37° |
| 2026-04-24 01:54 | 32.54548 | -109.90637 | 30025 ft | 490 kts | 37° |
| 2026-04-24 01:54 | 32.57071 | -109.87953 | 30296 ft | 494 kts | 36° |
| 2026-04-24 01:54 | 32.59652 | -109.85206 | 30531 ft | 498 kts | 36° |
| 2026-04-24 01:55 | 32.62256 | -109.82433 | 30792 ft | 503 kts | 36° |
| 2026-04-24 01:55 | 32.64834 | -109.79685 | 31037 ft | 506 kts | 36° |
| 2026-04-24 01:55 | 32.67474 | -109.76869 | 31311 ft | 509 kts | 36° |
| 2026-04-24 01:55 | 32.70097 | -109.74068 | 31563 ft | 512 kts | 36° |
| 2026-04-24 01:56 | 32.72764 | -109.71218 | 31875 ft | 513 kts | 36° |
| 2026-04-24 01:56 | 32.75393 | -109.68406 | 32356 ft | 512 kts | 36° |
| 2026-04-24 01:56 | 32.78052 | -109.65563 | 32696 ft | 513 kts | 35° |
| 2026-04-24 01:56 | 32.80724 | -109.62714 | 32967 ft | 515 kts | 35° |
| 2026-04-24 01:57 | 32.83384 | -109.59876 | 33263 ft | 516 kts | 34° |
| 2026-04-24 01:57 | 32.86060 | -109.57014 | 33595 ft | 517 kts | 34° |
| 2026-04-24 01:57 | 32.88743 | -109.54138 | 33915 ft | 518 kts | 34° |
| 2026-04-24 01:57 | 32.91394 | -109.51291 | 34225 ft | 518 kts | 35° |
| 2026-04-24 01:58 | 32.94032 | -109.48444 | 35048 ft | 502 kts | 36° |
| 2026-04-24 01:58 | 32.95736 | -109.46601 | 35470 ft | 497 kts | 35° |
| 2026-04-24 01:58 | 32.99156 | -109.42914 | 35606 ft | 503 kts | 34° |
| 2026-04-24 01:59 | 33.03545 | -109.38197 | 35763 ft | 511 kts | 35° |
| 2026-04-24 01:59 | 33.06191 | -109.35345 | 35957 ft | 512 kts | 35° |
| 2026-04-24 01:59 | 33.08797 | -109.32528 | 36228 ft | 511 kts | 34° |
| 2026-04-24 01:59 | 33.11449 | -109.29658 | 36426 ft | 513 kts | 34° |
| 2026-04-24 02:00 | 33.14118 | -109.26768 | 36597 ft | 516 kts | 34° |
| 2026-04-24 02:00 | 33.16751 | -109.23913 | 36911 ft | 515 kts | 34° |
| 2026-04-24 02:00 | 33.19420 | -109.21017 | 37193 ft | 516 kts | 34° |
| 2026-04-24 02:00 | 33.22052 | -109.18160 | 37396 ft | 518 kts | 34° |
| 2026-04-24 02:01 | 33.24731 | -109.15250 | 37767 ft | 516 kts | 34° |
| 2026-04-24 02:01 | 33.27387 | -109.12359 | 38126 ft | 514 kts | 34° |
| 2026-04-24 02:01 | 33.30016 | -109.09497 | 38328 ft | 515 kts | 34° |
| 2026-04-24 02:01 | 33.32690 | -109.06590 | 38431 ft | 519 kts | 34° |
| 2026-04-24 02:02 | 33.35343 | -109.03708 | 38564 ft | 520 kts | 34° |
| 2026-04-24 02:02 | 33.38026 | -109.00786 | 38804 ft | 519 kts | 34° |
| 2026-04-24 02:02 | 33.40710 | -108.97857 | 38852 ft | 522 kts | 34° |
| 2026-04-24 02:03 | 33.48723 | -108.89088 | 38852 ft | 518 kts | 34° |
| 2026-04-24 02:03 | 33.53994 | -108.83299 | 38889 ft | 513 kts | 34° |
| 2026-04-24 02:04 | 33.59237 | -108.77540 | 38836 ft | 510 kts | 34° |
| 2026-04-24 02:04 | 33.64472 | -108.71780 | 38847 ft | 507 kts | 34° |
| 2026-04-24 02:05 | 33.69637 | -108.66088 | 38854 ft | 504 kts | 34° |
| 2026-04-24 02:05 | 33.74826 | -108.60362 | 38861 ft | 508 kts | 34° |
| 2026-04-24 02:06 | 33.80086 | -108.54549 | 38863 ft | 515 kts | 35° |
| 2026-04-24 02:06 | 33.82709 | -108.51644 | 38612 ft | 522 kts | 35° |
| 2026-04-24 02:06 | 33.85401 | -108.48658 | 37967 ft | 524 kts | 35° |
| 2026-04-24 02:07 | 33.88052 | -108.45707 | 37347 ft | 522 kts | 35° |
| 2026-04-24 02:07 | 33.90720 | -108.42740 | 36768 ft | 519 kts | 36° |
| 2026-04-24 02:07 | 33.93420 | -108.39849 | 36177 ft | 514 kts | 32° |
| 2026-04-24 02:07 | 33.96248 | -108.37252 | 35642 ft | 507 kts | 28° |
| 2026-04-24 02:08 | 33.99109 | -108.34853 | 35004 ft | 506 kts | 27° |
| 2026-04-24 02:08 | 34.02033 | -108.32480 | 34399 ft | 505 kts | 27° |
| 2026-04-24 02:08 | 34.04971 | -108.30091 | 33701 ft | 507 kts | 28° |
| 2026-04-24 02:08 | 34.07854 | -108.27708 | 32920 ft | 509 kts | 29° |
| 2026-04-24 02:09 | 34.10777 | -108.25245 | 32172 ft | 510 kts | 29° |
| 2026-04-24 02:09 | 34.13661 | -108.22783 | 31542 ft | 509 kts | 28° |
| 2026-04-24 02:09 | 34.16538 | -108.20305 | 31032 ft | 505 kts | 28° |
| 2026-04-24 02:09 | 34.19380 | -108.17849 | 30504 ft | 501 kts | 28° |
| 2026-04-24 02:10 | 34.22206 | -108.15406 | 29972 ft | 497 kts | 28° |
| 2026-04-24 02:10 | 34.25010 | -108.12982 | 29384 ft | 492 kts | 28° |
| 2026-04-24 02:10 | 34.27784 | -108.10587 | 28808 ft | 487 kts | 28° |
| 2026-04-24 02:10 | 34.30499 | -108.08241 | 28282 ft | 481 kts | 28° |
| 2026-04-24 02:11 | 34.33211 | -108.05898 | 27750 ft | 476 kts | 28° |
| 2026-04-24 02:11 | 34.35908 | -108.03567 | 27216 ft | 471 kts | 28° |
| 2026-04-24 02:11 | 34.38531 | -108.01298 | 26706 ft | 466 kts | 28° |
| 2026-04-24 02:11 | 34.41159 | -107.99022 | 26224 ft | 461 kts | 28° |
| 2026-04-24 02:12 | 34.43760 | -107.96768 | 25720 ft | 457 kts | 28° |
| 2026-04-24 02:12 | 34.46346 | -107.94525 | 25209 ft | 453 kts | 28° |
| 2026-04-24 02:12 | 34.48868 | -107.92336 | 24724 ft | 449 kts | 28° |
| 2026-04-24 02:12 | 34.51402 | -107.90135 | 24193 ft | 446 kts | 28° |
| 2026-04-24 02:13 | 34.53919 | -107.87945 | 23688 ft | 442 kts | 28° |
| 2026-04-24 02:13 | 34.56428 | -107.85763 | 23142 ft | 439 kts | 28° |
| 2026-04-24 02:13 | 34.58899 | -107.83612 | 22674 ft | 433 kts | 29° |
| 2026-04-24 02:13 | 34.61261 | -107.81498 | 22480 ft | 424 kts | 34° |
| 2026-04-24 02:14 | 34.63195 | -107.78767 | 22165 ft | 429 kts | 55° |
| 2026-04-24 02:14 | 34.64598 | -107.75600 | 21952 ft | 421 kts | 58° |
| 2026-04-24 02:14 | 34.65923 | -107.72450 | 21593 ft | 416 kts | 59° |
| 2026-04-24 02:14 | 34.67231 | -107.69321 | 21186 ft | 413 kts | 59° |
| 2026-04-24 02:15 | 34.68519 | -107.66261 | 20755 ft | 410 kts | 59° |
| 2026-04-24 02:15 | 34.69822 | -107.63191 | 20331 ft | 408 kts | 59° |
| 2026-04-24 02:15 | 34.71129 | -107.60131 | 19897 ft | 406 kts | 59° |
| 2026-04-24 02:15 | 34.72435 | -107.57086 | 19462 ft | 404 kts | 59° |
| 2026-04-24 02:16 | 34.73733 | -107.54062 | 19021 ft | 403 kts | 59° |
| 2026-04-24 02:16 | 34.75027 | -107.51046 | 18580 ft | 401 kts | 59° |
| 2026-04-24 02:16 | 34.76299 | -107.48081 | 18166 ft | 399 kts | 59° |
| 2026-04-24 02:16 | 34.77583 | -107.45083 | 17669 ft | 397 kts | 59° |
| 2026-04-24 02:17 | 34.78854 | -107.42109 | 17228 ft | 395 kts | 60° |
| 2026-04-24 02:17 | 34.80115 | -107.39157 | 16808 ft | 391 kts | 60° |
| 2026-04-24 02:17 | 34.81364 | -107.36229 | 16404 ft | 388 kts | 60° |
| 2026-04-24 02:17 | 34.82605 | -107.33320 | 15981 ft | 385 kts | 60° |
| 2026-04-24 02:18 | 34.83825 | -107.30461 | 15560 ft | 382 kts | 60° |
| 2026-04-24 02:18 | 34.85045 | -107.27587 | 15174 ft | 379 kts | 61° |
| 2026-04-24 02:18 | 34.86231 | -107.24729 | 14811 ft | 376 kts | 61° |
| 2026-04-24 02:18 | 34.87385 | -107.21928 | 14508 ft | 371 kts | 61° |
| 2026-04-24 02:19 | 34.88529 | -107.19151 | 14351 ft | 362 kts | 61° |
| 2026-04-24 02:19 | 34.89638 | -107.16440 | 14181 ft | 354 kts | 64° |
| 2026-04-24 02:19 | 34.90302 | -107.13563 | 13859 ft | 353 kts | 82° |
| 2026-04-24 02:19 | 34.90635 | -107.10605 | 13527 ft | 351 kts | 83° |
| 2026-04-24 02:20 | 34.90951 | -107.07689 | 13152 ft | 350 kts | 82° |
| 2026-04-24 02:20 | 34.91275 | -107.04744 | 12783 ft | 348 kts | 82° |
| 2026-04-24 02:20 | 34.91605 | -107.01827 | 12428 ft | 346 kts | 81° |
| 2026-04-24 02:20 | 34.91938 | -106.98947 | 12079 ft | 344 kts | 81° |
| 2026-04-24 02:21 | 34.92275 | -106.96057 | 11731 ft | 343 kts | 80° |
| 2026-04-24 02:21 | 34.92610 | -106.93209 | 11397 ft | 341 kts | 80° |
| 2026-04-24 02:21 | 34.92948 | -106.90342 | 11057 ft | 340 kts | 79° |
| 2026-04-24 02:21 | 34.93281 | -106.87508 | 10826 ft | 338 kts | 79° |
| 2026-04-24 02:22 | 34.93614 | -106.84673 | 10630 ft | 332 kts | 79° |
| 2026-04-24 02:22 | 34.93935 | -106.81931 | 10476 ft | 325 kts | 79° |
| 2026-04-24 02:22 | 34.94247 | -106.79257 | 10348 ft | 317 kts | 79° |
| 2026-04-24 02:22 | 34.94556 | -106.76615 | 10228 ft | 309 kts | 79° |
| 2026-04-24 02:23 | 34.94852 | -106.74067 | 10168 ft | 295 kts | 78° |
| 2026-04-24 02:23 | 34.95131 | -106.71659 | 10068 ft | 281 kts | 78° |
| 2026-04-24 02:23 | 34.95333 | -106.69319 | 9758 ft | 275 kts | 83° |
| 2026-04-24 02:23 | 34.95408 | -106.67052 | 9431 ft | 267 kts | 85° |
| 2026-04-24 02:24 | 34.95507 | -106.64831 | 9109 ft | 257 kts | 75° |
| 2026-04-24 02:24 | 34.96117 | -106.62873 | 8818 ft | 241 kts | 57° |
| 2026-04-24 02:24 | 34.96838 | -106.61070 | 8541 ft | 232 kts | 58° |
| 2026-04-24 02:24 | 34.97515 | -106.59335 | 8276 ft | 219 kts | 58° |
| 2026-04-24 02:25 | 34.98134 | -106.57719 | 8047 ft | 202 kts | 58° |
| 2026-04-24 02:25 | 34.98711 | -106.56205 | 7792 ft | 192 kts | 59° |
| 2026-04-24 02:25 | 34.99257 | -106.54762 | 7618 ft | 180 kts | 58° |
| 2026-04-24 02:25 | 34.99769 | -106.53407 | 7374 ft | 172 kts | 58° |
| 2026-04-24 02:26 | 35.00264 | -106.52096 | 7163 ft | 169 kts | 59° |
| 2026-04-24 02:26 | 35.00777 | -106.50814 | 6971 ft | 167 kts | 50° |
| 2026-04-24 02:26 | 35.01636 | -106.50143 | 6766 ft | 140 kts | 351° |
| 2026-04-24 02:26 | 35.02523 | -106.50546 | 6663 ft | 141 kts | 321° |
| 2026-04-24 02:27 | 35.03311 | -106.51265 | 6476 ft | 140 kts | 321° |
| 2026-04-24 02:27 | 35.03934 | -106.52137 | 6307 ft | 139 kts | 296° |
| 2026-04-24 02:27 | 35.04262 | -106.53241 | 6241 ft | 141 kts | 283° |
| 2026-04-24 02:27 | 35.04377 | -106.54457 | 6034 ft | 146 kts | 273° |
| 2026-04-24 02:28 | 35.04388 | -106.55681 | 5850 ft | 141 kts | 270° |
| 2026-04-24 02:28 | 35.04394 | -106.56852 | 5687 ft | 141 kts | 270° |
| 2026-04-24 02:28 | 35.04404 | -106.58066 | 5534 ft | 143 kts | 271° |
| 2026-04-24 02:28 | 35.04414 | -106.59234 | 5510 ft | 122 kts | 271° |
| 2026-04-24 02:29 | 35.04421 | -106.60084 | 5504 ft | 73 kts | 270° |
| 2026-04-24 02:29 | 35.04423 | -106.60474 | 5502 ft | 42 kts | 270° |
| 2026-04-24 02:29 | 35.04427 | -106.60817 | 5500 ft | 35 kts | 270° |
| 2026-04-24 02:29 | 35.04464 | -106.60987 | 5495 ft | 13 kts | 302° |
| 2026-04-24 02:30 | 35.04537 | -106.61050 | 5491 ft | 13 kts | 336° |
| 2026-04-24 02:30 | 35.04578 | -106.61134 | 5490 ft | 12 kts | 281° |
| 2026-04-24 02:30 | 35.04584 | -106.61230 | 5491 ft | 11 kts | 267° |
| 2026-04-24 02:30 | 35.04576 | -106.61320 | 5490 ft | 11 kts | 256° |
| 2026-04-24 02:31 | 35.04556 | -106.61408 | 5487 ft | 11 kts | 265° |
| 2026-04-24 02:31 | 35.04564 | -106.61503 | 5488 ft | 10 kts | 295° |
| 2026-04-24 02:31 | 35.04572 | -106.61517 | 5481 ft | 0 kts | 313° |
| 2026-04-24 02:31 | 35.04588 | -106.61532 | 5486 ft | 3 kts | 324° |
| 2026-04-24 02:32 | 35.04608 | -106.61545 | 5485 ft | 4 kts | 339° |
| 2026-04-24 02:32 | 35.04637 | -106.61548 | 5493 ft | 1 kts | 5° |
| 2026-04-24 02:32 | 35.04639 | -106.61547 | 5493 ft | 2 kts | 5° |
| 2026-04-24 02:32 | 35.04669 | -106.61541 | 5494 ft | 5 kts | 12° |
| 2026-04-24 02:33 | 35.04688 | -106.61536 | 5494 ft | 0 kts | 11° |